Time;durP1;ratioP1;P1;durP2;ratioP2;P2;SDS_P1;SDS_P2;PMS_P1;PMS_P2;Temp;Humidity;BMP_temperature;BMP_pressure;BME280_temperature;BME280_humidity;BME280_pressure;Samples;Min_cycle;Max_cycle;Signal;HPM_P1;HPM_P2
2023/04/24 00:01:31;;;;;;;4.40;4.00;;;;;;;;;;5074437;28;20016;-65
2023/04/24 00:03:59;;;;;;;4.90;4.07;;;;;;;;;;5074511;28;20035;-65
2023/04/24 00:06:32;;;;;;;4.57;3.97;;;;;;;;;;5074784;28;20056;-65
2023/04/24 00:08:59;;;;;;;4.30;3.90;;;;;;;;;;5074389;28;20033;-65
2023/04/24 00:11:25;;;;;;;4.35;3.95;;;;;;;;;;5074511;28;20451;-66
2023/04/24 00:13:53;;;;;;;4.40;4.00;;;;;;;;;;5074556;28;20032;-66
2023/04/24 00:16:19;;;;;;;4.57;4.00;;;;;;;;;;5074433;28;20029;-66
2023/04/24 00:18:44;;;;;;;4.80;3.80;;;;;;;;;;5074526;28;20021;-66
2023/04/24 00:21:10;;;;;;;5.97;3.92;;;;;;;;;;5074274;28;20384;-66
2023/04/24 00:23:36;;;;;;;4.60;4.20;;;;;;;;;;5074219;28;20029;-67
2023/04/24 00:26:02;;;;;;;4.43;4.03;;;;;;;;;;5074714;28;20090;-67
2023/04/24 00:28:27;;;;;;;4.28;3.88;;;;;;;;;;5062597;28;20537;-65
2023/04/24 00:30:53;;;;;;;4.30;3.90;;;;;;;;;;5092162;28;20021;-65
2023/04/24 00:33:19;;;;;;;4.07;3.75;;;;;;;;;;5091431;28;20016;-65
2023/04/24 00:35:45;;;;;;;5.07;4.53;;;;;;;;;;5093026;28;20127;-65
2023/04/24 00:38:10;;;;;;;4.78;4.05;;;;;;;;;;5094261;28;20063;-64
2023/04/24 00:40:36;;;;;;;5.55;3.72;;;;;;;;;;5091173;28;20039;-66
2023/04/24 00:43:02;;;;;;;4.20;3.75;;;;;;;;;;5093053;28;20051;-67
2023/04/24 00:45:27;;;;;;;4.57;3.97;;;;;;;;;;5076050;28;20031;-67
2023/04/24 00:47:53;;;;;;;4.88;4.40;;;;;;;;;;5093856;28;20020;-67
2023/04/24 00:50:21;;;;;;;3.92;3.63;;;;;;;;;;5094225;28;20097;-66
2023/04/24 00:52:47;;;;;;;4.90;4.40;;;;;;;;;;5090624;28;20035;-66
2023/04/24 00:55:12;;;;;;;5.10;4.00;;;;;;;;;;5090046;28;20020;-65
2023/04/24 00:57:38;;;;;;;4.10;3.80;;;;;;;;;;5091335;28;20016;-66
2023/04/24 01:00:05;;;;;;;4.03;3.70;;;;;;;;;;5091156;28;20509;-66
2023/04/24 01:02:34;;;;;;;3.95;3.65;;;;;;;;;;5091191;28;20032;-66
2023/04/24 01:05:00;;;;;;;4.20;3.80;;;;;;;;;;5098285;28;20392;-65
2023/04/24 01:07:27;;;;;;;5.55;4.07;;;;;;;;;;5090029;28;20103;-66
2023/04/24 01:09:52;;;;;;;4.68;4.03;;;;;;;;;;5078998;28;20031;-65
2023/04/24 01:12:19;;;;;;;3.85;3.50;;;;;;;;;;5073494;28;20040;-65
2023/04/24 01:14:45;;;;;;;4.10;3.70;;;;;;;;;;5072310;28;20552;-65
2023/04/24 01:17:11;;;;;;;4.35;3.78;;;;;;;;;;5073261;28;20021;-65
2023/04/24 01:19:37;;;;;;;4.10;3.70;;;;;;;;;;5073099;28;20024;-66
2023/04/24 01:22:08;;;;;;;4.13;3.72;;;;;;;;;;5073370;28;20036;-65
2023/04/24 01:24:34;;;;;;;4.35;3.65;;;;;;;;;;5072724;28;20021;-66
2023/04/24 01:27:01;;;;;;;4.28;3.88;;;;;;;;;;5072622;28;20032;-65
2023/04/24 01:29:27;;;;;;;4.22;3.83;;;;;;;;;;5072976;28;20066;-66
2023/04/24 01:31:52;;;;;;;6.53;3.83;;;;;;;;;;5073147;28;20067;-66
2023/04/24 01:34:18;;;;;;;4.38;3.97;;;;;;;;;;5072420;28;20495;-65
2023/04/24 01:36:45;;;;;;;4.28;3.88;;;;;;;;;;5072739;28;20051;-65
2023/04/24 01:39:11;;;;;;;4.32;3.92;;;;;;;;;;5072892;28;20035;-65
2023/04/24 01:41:37;;;;;;;5.10;3.97;;;;;;;;;;5072644;28;20033;-66
2023/04/24 01:44:03;;;;;;;4.28;3.88;;;;;;;;;;5072697;28;20040;-66
2023/04/24 01:46:30;;;;;;;4.97;3.63;;;;;;;;;;5072631;28;20025;-65
2023/04/24 01:48:56;;;;;;;4.57;3.78;;;;;;;;;;5073020;28;20082;-65
2023/04/24 01:51:21;;;;;;;4.05;3.75;;;;;;;;;;5072527;28;20481;-65
2023/04/24 01:53:47;;;;;;;5.20;4.10;;;;;;;;;;5072780;28;20032;-65
2023/04/24 01:56:14;;;;;;;4.30;4.00;;;;;;;;;;5072875;28;20071;-65
2023/04/24 01:58:40;;;;;;;4.10;3.70;;;;;;;;;;5072394;28;20063;-66
2023/04/24 02:01:06;;;;;;;4.53;4.13;;;;;;;;;;5072464;28;20060;-66
2023/04/24 02:03:32;;;;;;;4.28;3.88;;;;;;;;;;5072371;28;20068;-65
2023/04/24 02:05:57;;;;;;;4.18;3.88;;;;;;;;;;5072718;28;20048;-65
2023/04/24 02:08:23;;;;;;;4.43;4.00;;;;;;;;;;5072428;28;20027;-65
2023/04/24 02:10:48;;;;;;;5.85;3.92;;;;;;;;;;5072324;28;20055;-65
2023/04/24 02:13:14;;;;;;;4.40;3.97;;;;;;;;;;5072393;28;20029;-65
2023/04/24 02:15:39;;;;;;;4.60;3.97;;;;;;;;;;5072302;28;20492;-65
2023/04/24 02:18:06;;;;;;;4.88;4.10;;;;;;;;;;5072521;28;20056;-65
2023/04/24 02:20:33;;;;;;;5.15;4.30;;;;;;;;;;5072655;28;20040;-66
2023/04/24 02:22:59;;;;;;;4.10;3.70;;;;;;;;;;5072450;28;20036;-65
2023/04/24 02:25:25;;;;;;;4.35;3.95;;;;;;;;;;5072615;28;20437;-65
2023/04/24 02:27:51;;;;;;;4.40;4.00;;;;;;;;;;5072332;28;20024;-65
2023/04/24 02:30:16;;;;;;;3.80;3.40;;;;;;;;;;5072218;28;20047;-65
2023/04/24 02:32:42;;;;;;;4.28;3.80;;;;;;;;;;5072208;28;20028;-66
2023/04/24 02:35:08;;;;;;;4.18;3.80;;;;;;;;;;5071991;28;20028;-66
2023/04/24 02:37:33;;;;;;;4.28;3.88;;;;;;;;;;5072337;28;20040;-65
2023/04/24 02:39:59;;;;;;;4.75;3.80;;;;;;;;;;5072195;28;20017;-65
2023/04/24 02:42:24;;;;;;;4.57;4.18;;;;;;;;;;5072374;28;20115;-65
2023/04/24 02:44:51;;;;;;;5.03;3.72;;;;;;;;;;5072041;28;20029;-66
2023/04/24 02:47:16;;;;;;;4.85;4.07;;;;;;;;;;5074989;28;20031;-65
2023/04/24 02:49:42;;;;;;;4.72;3.92;;;;;;;;;;5076000;28;20028;-66
2023/04/24 02:52:07;;;;;;;4.00;3.60;;;;;;;;;;5076078;28;20025;-66
2023/04/24 02:54:33;;;;;;;4.45;3.97;;;;;;;;;;5076264;28;20063;-66
2023/04/24 02:56:58;;;;;;;4.40;3.90;;;;;;;;;;5075925;28;20477;-66
2023/04/24 02:59:24;;;;;;;4.13;3.72;;;;;;;;;;5075974;28;20029;-66
2023/04/24 03:01:49;;;;;;;4.18;3.78;;;;;;;;;;5075999;28;20028;-66
2023/04/24 03:04:15;;;;;;;4.25;3.70;;;;;;;;;;5076021;28;20358;-65
2023/04/24 03:06:40;;;;;;;4.32;3.92;;;;;;;;;;5075851;28;20029;-66
2023/04/24 03:09:06;;;;;;;6.82;4.00;;;;;;;;;;5075958;28;20055;-66
2023/04/24 03:11:31;;;;;;;3.80;3.50;;;;;;;;;;5075910;28;20125;-65
2023/04/24 03:13:57;;;;;;;5.07;3.97;;;;;;;;;;5075593;28;20492;-65
2023/04/24 03:16:23;;;;;;;4.60;4.07;;;;;;;;;;5075529;28;20032;-66
2023/04/24 03:18:48;;;;;;;4.25;3.60;;;;;;;;;;5075781;28;20025;-66
2023/04/24 03:21:13;;;;;;;4.05;3.65;;;;;;;;;;5075399;28;20028;-65
2023/04/24 03:23:39;;;;;;;4.25;3.88;;;;;;;;;;5075552;28;20035;-65
2023/04/24 03:26:05;;;;;;;4.90;3.97;;;;;;;;;;5075649;28;20024;-65
2023/04/24 03:28:30;;;;;;;4.10;3.70;;;;;;;;;;5075554;28;20052;-66
2023/04/24 03:30:56;;;;;;;5.50;4.05;;;;;;;;;;5075238;28;20056;-65
2023/04/24 03:33:21;;;;;;;3.90;3.50;;;;;;;;;;5075438;28;20032;-66
2023/04/24 03:35:47;;;;;;;3.90;3.55;;;;;;;;;;5074951;28;20048;-65
2023/04/24 03:38:12;;;;;;;4.75;3.55;;;;;;;;;;5090741;28;20028;-65
2023/04/24 03:40:38;;;;;;;4.93;3.90;;;;;;;;;;5075071;28;20050;-65
2023/04/24 03:43:03;;;;;;;4.57;3.90;;;;;;;;;;5075272;28;20032;-66
2023/04/24 03:45:29;;;;;;;4.30;3.90;;;;;;;;;;5074965;28;20059;-65
2023/04/24 03:47:54;;;;;;;4.10;3.70;;;;;;;;;;5074947;28;20067;-66
2023/04/24 03:50:20;;;;;;;4.20;3.70;;;;;;;;;;5075199;28;20025;-66
2023/04/24 03:52:46;;;;;;;4.22;3.83;;;;;;;;;;5074879;28;20469;-66
2023/04/24 03:55:13;;;;;;;4.25;3.83;;;;;;;;;;5074810;28;20036;-66
2023/04/24 03:57:40;;;;;;;3.63;3.33;;;;;;;;;;5074615;28;20369;-66
2023/04/24 04:00:06;;;;;;;4.03;3.67;;;;;;;;;;5075022;28;20032;-65
2023/04/24 04:02:32;;;;;;;4.95;4.40;;;;;;;;;;5074597;28;20032;-65
2023/04/24 04:04:57;;;;;;;3.90;3.60;;;;;;;;;;5074875;28;20077;-65
2023/04/24 04:07:23;;;;;;;4.22;3.85;;;;;;;;;;5074667;28;20021;-66
2023/04/24 04:09:48;;;;;;;4.25;3.85;;;;;;;;;;5074490;28;20029;-66
2023/04/24 04:12:14;;;;;;;4.40;4.00;;;;;;;;;;5074553;28;20017;-66
2023/04/24 04:14:39;;;;;;;4.22;3.83;;;;;;;;;;5090098;28;20442;-66
2023/04/24 04:17:05;;;;;;;4.18;3.78;;;;;;;;;;5074710;28;20051;-65
2023/04/24 04:19:30;;;;;;;5.97;3.92;;;;;;;;;;5074359;28;20472;-66
2023/04/24 04:21:56;;;;;;;3.90;3.60;;;;;;;;;;5074575;28;20074;-65
2023/04/24 04:24:22;;;;;;;4.43;3.72;;;;;;;;;;5056309;28;20051;-65
2023/04/24 04:26:50;;;;;;;4.50;3.55;;;;;;;;;;5074528;28;20028;-66
2023/04/24 04:29:18;;;;;;;4.00;3.65;;;;;;;;;;5074061;28;20032;-66
2023/04/24 04:31:44;;;;;;;4.35;3.95;;;;;;;;;;5074473;28;20063;-66
2023/04/24 04:34:09;;;;;;;3.75;3.45;;;;;;;;;;5074022;28;20056;-66
2023/04/24 04:36:36;;;;;;;4.00;3.60;;;;;;;;;;5073889;28;20123;-66
2023/04/24 04:39:03;;;;;;;3.83;3.53;;;;;;;;;;5074178;28;20043;-65
2023/04/24 04:41:29;;;;;;;4.05;3.60;;;;;;;;;;5073546;28;20107;-66
2023/04/24 04:43:58;;;;;;;4.63;3.90;;;;;;;;;;5074032;28;20025;-65
2023/04/24 04:46:25;;;;;;;4.40;3.90;;;;;;;;;;5073787;28;20017;-66
2023/04/24 04:48:52;;;;;;;3.95;3.55;;;;;;;;;;5074000;28;20496;-66
2023/04/24 04:51:17;;;;;;;4.63;3.97;;;;;;;;;;5073928;28;20077;-66
2023/04/24 04:53:43;;;;;;;4.15;3.78;;;;;;;;;;5073533;28;20478;-66
2023/04/24 04:56:08;;;;;;;3.92;3.55;;;;;;;;;;5073644;28;20029;-65
2023/04/24 04:58:34;;;;;;;4.80;3.75;;;;;;;;;;5073557;28;20021;-65
2023/04/24 05:00:59;;;;;;;6.40;3.75;;;;;;;;;;5073700;28;20086;-65
2023/04/24 05:03:25;;;;;;;3.90;3.50;;;;;;;;;;5073551;28;20024;-65
2023/04/24 05:05:51;;;;;;;4.60;4.13;;;;;;;;;;5073346;28;20541;-65
2023/04/24 05:08:16;;;;;;;4.50;3.85;;;;;;;;;;5072649;28;20376;-65
2023/04/24 05:10:42;;;;;;;4.00;3.60;;;;;;;;;;5073027;28;20024;-65
2023/04/24 05:13:07;;;;;;;4.18;3.78;;;;;;;;;;5073201;28;20145;-65
2023/04/24 05:15:33;;;;;;;4.25;3.85;;;;;;;;;;5073457;28;20021;-65
2023/04/24 05:17:58;;;;;;;4.03;3.53;;;;;;;;;;5073383;28;20051;-65
2023/04/24 05:20:24;;;;;;;4.18;3.75;;;;;;;;;;5073455;28;20016;-65
2023/04/24 05:22:50;;;;;;;4.05;3.65;;;;;;;;;;5073240;28;20464;-65
2023/04/24 05:25:15;;;;;;;4.13;3.72;;;;;;;;;;5072992;28;20435;-66
2023/04/24 05:27:41;;;;;;;4.32;3.88;;;;;;;;;;5073231;28;20025;-67
2023/04/24 05:30:07;;;;;;;3.83;3.53;;;;;;;;;;5072825;28;20021;-66
2023/04/24 05:32:33;;;;;;;4.30;3.88;;;;;;;;;;5072850;28;20660;-67
2023/04/24 05:34:58;;;;;;;4.07;3.78;;;;;;;;;;5072698;28;20028;-66
2023/04/24 05:37:24;;;;;;;4.70;3.88;;;;;;;;;;5072682;28;20035;-67
2023/04/24 05:39:49;;;;;;;4.15;3.75;;;;;;;;;;5073080;28;20047;-67
2023/04/24 05:42:15;;;;;;;3.95;3.65;;;;;;;;;;5072574;28;20115;-67
2023/04/24 05:44:40;;;;;;;4.03;3.63;;;;;;;;;;5072959;28;20024;-66
2023/04/24 05:47:06;;;;;;;3.90;3.58;;;;;;;;;;5072939;28;20032;-66
2023/04/24 05:49:31;;;;;;;4.05;3.75;;;;;;;;;;5072603;28;20477;-67
2023/04/24 05:51:57;;;;;;;3.92;3.50;;;;;;;;;;5072449;28;20120;-67
2023/04/24 05:54:23;;;;;;;3.85;3.45;;;;;;;;;;5072906;28;20056;-67
2023/04/24 05:56:50;;;;;;;3.90;3.60;;;;;;;;;;5072356;28;20024;-65
2023/04/24 05:59:15;;;;;;;3.90;3.60;;;;;;;;;;5072531;28;20066;-66
2023/04/24 06:01:41;;;;;;;5.40;3.70;;;;;;;;;;5054402;28;20111;-65
2023/04/24 06:04:07;;;;;;;3.80;3.50;;;;;;;;;;5072698;28;20043;-65
2023/04/24 06:06:33;;;;;;;3.97;3.40;;;;;;;;;;5072697;28;20030;-67
2023/04/24 06:08:58;;;;;;;4.22;3.83;;;;;;;;;;5072438;28;20094;-66
2023/04/24 06:11:24;;;;;;;3.90;3.50;;;;;;;;;;5088113;28;20039;-66
2023/04/24 06:13:50;;;;;;;4.20;3.80;;;;;;;;;;5072326;28;20032;-67
2023/04/24 06:16:15;;;;;;;3.85;3.45;;;;;;;;;;5072552;28;20027;-67
2023/04/24 06:18:41;;;;;;;3.40;3.10;;;;;;;;;;5072263;28;20376;-67
2023/04/24 06:21:07;;;;;;;3.80;3.50;;;;;;;;;;5072255;28;20024;-67
2023/04/24 06:23:32;;;;;;;3.80;3.50;;;;;;;;;;5072353;28;20641;-67
2023/04/24 06:25:59;;;;;;;4.35;3.80;;;;;;;;;;5072126;28;20082;-66
2023/04/24 06:28:25;;;;;;;4.40;3.58;;;;;;;;;;5072467;28;20039;-66
2023/04/24 06:30:50;;;;;;;4.70;3.80;;;;;;;;;;5072102;28;20372;-66
2023/04/24 06:33:16;;;;;;;4.22;3.80;;;;;;;;;;5072086;28;20059;-67
2023/04/24 06:35:42;;;;;;;3.80;3.50;;;;;;;;;;5071767;28;20546;-64
2023/04/24 06:38:08;;;;;;;5.75;3.97;;;;;;;;;;5072060;28;20024;-64
2023/04/24 06:40:33;;;;;;;4.05;3.65;;;;;;;;;;5071963;28;20064;-66
2023/04/24 06:42:59;;;;;;;3.97;3.65;;;;;;;;;;5072194;28;20032;-65
2023/04/24 06:45:25;;;;;;;3.75;3.45;;;;;;;;;;5071974;28;20041;-65
2023/04/24 06:47:51;;;;;;;3.53;3.22;;;;;;;;;;5071994;28;20024;-65
2023/04/24 06:50:17;;;;;;;4.00;3.47;;;;;;;;;;5072186;28;20025;-66
2023/04/24 06:52:43;;;;;;;3.95;3.65;;;;;;;;;;5072057;28;20035;-65
2023/04/24 06:55:12;;;;;;;3.75;3.45;;;;;;;;;;5071816;28;20028;-65
2023/04/24 06:57:38;;;;;;;3.80;3.50;;;;;;;;;;5071953;28;20024;-65
2023/04/24 07:00:06;;;;;;;4.00;3.70;;;;;;;;;;5054057;28;20028;-67
2023/04/24 07:02:31;;;;;;;4.13;3.72;;;;;;;;;;5071655;28;20479;-65
2023/04/24 07:04:57;;;;;;;4.13;3.67;;;;;;;;;;5071768;28;20031;-65
2023/04/24 07:07:23;;;;;;;3.90;3.60;;;;;;;;;;5071681;28;20074;-66
2023/04/24 07:09:50;;;;;;;4.03;3.60;;;;;;;;;;5071545;28;20150;-66
2023/04/24 07:12:16;;;;;;;3.72;3.40;;;;;;;;;;5071893;28;20067;-65
2023/04/24 07:14:42;;;;;;;3.70;3.40;;;;;;;;;;5071576;28;20059;-65
2023/04/24 07:17:17;;;;;;;4.03;3.63;;;;;;;;;;5071883;28;20064;-66
2023/04/24 07:19:43;;;;;;;5.05;3.60;;;;;;;;;;5054258;28;20028;-66
2023/04/24 07:22:11;;;;;;;4.15;3.70;;;;;;;;;;5071760;28;20116;-65
2023/04/24 07:24:37;;;;;;;3.70;3.40;;;;;;;;;;5053624;28;20025;-65
2023/04/24 07:27:04;;;;;;;5.85;3.72;;;;;;;;;;5071429;28;20051;-65
2023/04/24 07:29:30;;;;;;;4.45;4.05;;;;;;;;;;5071344;28;20024;-65
2023/04/24 07:31:56;;;;;;;4.25;3.85;;;;;;;;;;5072238;28;20043;-65
2023/04/24 07:34:21;;;;;;;4.88;4.03;;;;;;;;;;5090857;28;20048;-66
2023/04/24 07:36:47;;;;;;;6.28;3.78;;;;;;;;;;5070240;28;20425;-66
2023/04/24 07:39:13;;;;;;;3.92;3.63;;;;;;;;;;5055243;28;20111;-66
2023/04/24 07:41:38;;;;;;;3.75;3.40;;;;;;;;;;5054916;28;20489;-66
2023/04/24 07:44:04;;;;;;;4.43;3.75;;;;;;;;;;5055361;28;20075;-66
2023/04/24 07:46:30;;;;;;;3.70;3.40;;;;;;;;;;5054972;28;20500;-67
2023/04/24 07:48:56;;;;;;;4.15;3.63;;;;;;;;;;5053473;28;20028;-65
2023/04/24 07:51:21;;;;;;;4.65;3.90;;;;;;;;;;5055135;28;20020;-65
2023/04/24 07:53:47;;;;;;;4.10;3.70;;;;;;;;;;5055058;28;20519;-65
2023/04/24 07:56:13;;;;;;;4.45;4.00;;;;;;;;;;5054876;28;20381;-64
2023/04/24 07:58:38;;;;;;;4.45;3.97;;;;;;;;;;5054756;28;20025;-64
2023/04/24 08:01:04;;;;;;;4.15;3.85;;;;;;;;;;5087072;28;20117;-64
2023/04/24 08:03:30;;;;;;;4.18;3.53;;;;;;;;;;5054523;28;20033;-65
2023/04/24 08:05:55;;;;;;;4.00;3.70;;;;;;;;;;5054235;28;20040;-64
2023/04/24 08:08:22;;;;;;;4.10;3.70;;;;;;;;;;5054424;28;20025;-65
2023/04/24 08:10:48;;;;;;;3.80;3.50;;;;;;;;;;5054343;28;20021;-64
2023/04/24 08:13:14;;;;;;;4.00;3.60;;;;;;;;;;5054010;28;20029;-64
2023/04/24 08:15:39;;;;;;;3.85;3.55;;;;;;;;;;5053697;28;20033;-64
2023/04/24 08:18:07;;;;;;;4.50;4.10;;;;;;;;;;5053464;28;20021;-64
2023/04/24 08:20:32;;;;;;;4.15;3.75;;;;;;;;;;5053805;28;20106;-65
2023/04/24 08:22:58;;;;;;;4.05;3.63;;;;;;;;;;5053529;28;20079;-64
2023/04/24 08:25:24;;;;;;;4.13;3.72;;;;;;;;;;5053449;28;20486;-64
2023/04/24 08:27:51;;;;;;;4.15;3.78;;;;;;;;;;5053445;28;20132;-64
2023/04/24 08:30:16;;;;;;;4.40;3.85;;;;;;;;;;5052868;28;20354;-64
2023/04/24 08:32:42;;;;;;;4.10;3.70;;;;;;;;;;5054169;28;20044;-64
2023/04/24 08:35:11;;;;;;;3.65;3.20;;;;;;;;;;5055756;28;20025;-65
2023/04/24 08:37:38;;;;;;;4.10;3.55;;;;;;;;;;5074022;28;20511;-65
2023/04/24 08:40:12;;;;;;;4.15;3.72;;;;;;;;;;5074105;28;20036;-66
2023/04/24 08:42:39;;;;;;;4.07;3.67;;;;;;;;;;5073740;28;20033;-65
2023/04/24 08:45:06;;;;;;;5.53;4.10;;;;;;;;;;5073644;28;20020;-65
2023/04/24 08:47:32;;;;;;;3.80;3.47;;;;;;;;;;5073617;28;20024;-64
2023/04/24 08:50:02;;;;;;;4.35;3.75;;;;;;;;;;5073751;28;20055;-64
2023/04/24 08:52:28;;;;;;;4.25;3.85;;;;;;;;;;5074011;28;20115;-65
2023/04/24 08:54:54;;;;;;;4.10;3.72;;;;;;;;;;5073586;28;20090;-65
2023/04/24 08:57:21;;;;;;;5.03;4.10;;;;;;;;;;5055761;28;20369;-66
2023/04/24 08:59:46;;;;;;;4.00;3.60;;;;;;;;;;5073502;28;20028;-64
2023/04/24 09:02:14;;;;;;;4.10;3.70;;;;;;;;;;5073681;28;20028;-64
2023/04/24 09:04:41;;;;;;;4.25;3.85;;;;;;;;;;5073265;28;20530;-65
2023/04/24 09:07:10;;;;;;;4.20;3.80;;;;;;;;;;5073365;28;20033;-65
2023/04/24 09:09:37;;;;;;;6.60;3.95;;;;;;;;;;5073524;28;20105;-65
2023/04/24 09:12:03;;;;;;;4.03;3.55;;;;;;;;;;5073569;28;20028;-65
2023/04/24 09:14:31;;;;;;;5.40;4.15;;;;;;;;;;5073241;28;20388;-66
2023/04/24 09:16:57;;;;;;;4.15;3.75;;;;;;;;;;5073142;28;20505;-65
2023/04/24 09:19:23;;;;;;;3.72;3.42;;;;;;;;;;5073351;28;20043;-65
2023/04/24 09:21:48;;;;;;;3.72;3.38;;;;;;;;;;5073333;28;20044;-65
2023/04/24 09:24:22;;;;;;;3.97;3.58;;;;;;;;;;5088467;28;20472;-65
2023/04/24 09:26:49;;;;;;;4.80;3.55;;;;;;;;;;5091921;28;20024;-65
2023/04/24 09:29:18;;;;;;;4.25;3.75;;;;;;;;;;5091619;28;20028;-64
2023/04/24 09:31:45;;;;;;;4.30;3.72;;;;;;;;;;5091733;28;20065;-64
2023/04/24 09:34:11;;;;;;;3.55;3.25;;;;;;;;;;5088957;28;20032;-65
2023/04/24 09:36:39;;;;;;;4.50;3.72;;;;;;;;;;5091489;28;20036;-64
2023/04/24 09:39:08;;;;;;;3.97;3.60;;;;;;;;;;5091567;28;20036;-64
2023/04/24 09:41:33;;;;;;;3.75;3.45;;;;;;;;;;5089433;28;20024;-64
2023/04/24 09:44:34;;;;;;;3.95;3.65;;;;;;;;;;5091387;28;20500;-65
2023/04/24 09:47:00;;;;;;;;;;;;;;;;;;5046355;28;20488;-65
2023/04/24 09:49:37;;;;;;;4.05;3.65;;;;;;;;;;5073693;28;19915;-65
2023/04/24 09:52:08;;;;;;;3.97;3.58;;;;;;;;;;5092915;28;20429;-65
2023/04/24 09:54:36;;;;;;;3.97;3.60;;;;;;;;;;5087166;28;20028;-65
2023/04/24 09:57:02;;;;;;;4.93;4.18;;;;;;;;;;5086937;28;20107;-66
2023/04/24 09:59:27;;;;;;;4.65;4.00;;;;;;;;;;5088243;28;20095;-66
2023/04/24 10:01:53;;;;;;;4.85;3.83;;;;;;;;;;5088116;28;20028;-65
2023/04/24 10:04:21;;;;;;;3.97;3.58;;;;;;;;;;5086965;28;20097;-66
2023/04/24 10:06:53;;;;;;;4.25;3.70;;;;;;;;;;5071165;28;20502;-65
2023/04/24 10:09:20;;;;;;;4.38;3.80;;;;;;;;;;5089539;28;20426;-66
2023/04/24 10:11:48;;;;;;;3.97;3.60;;;;;;;;;;5088816;28;20028;-66
2023/04/24 10:14:20;;;;;;;4.13;3.65;;;;;;;;;;5088949;28;20066;-65
2023/04/24 10:16:49;;;;;;;4.50;4.10;;;;;;;;;;5088552;28;20016;-66
2023/04/24 10:19:15;;;;;;;4.10;3.70;;;;;;;;;;5087366;28;20016;-64
2023/04/24 10:21:46;;;;;;;4.13;3.72;;;;;;;;;;5089918;28;20024;-64
2023/04/24 10:24:16;;;;;;;3.75;3.45;;;;;;;;;;5080019;28;20074;-66
2023/04/24 10:26:42;;;;;;;6.28;3.50;;;;;;;;;;5089045;28;20016;-65
2023/04/24 10:29:12;;;;;;;4.50;3.80;;;;;;;;;;5091511;28;20095;-65
2023/04/24 10:31:38;;;;;;;4.00;3.60;;;;;;;;;;5089993;28;20035;-65
2023/04/24 10:34:08;;;;;;;3.97;3.53;;;;;;;;;;5089512;28;20301;-64
2023/04/24 10:36:54;;;;;;;4.75;4.00;;;;;;;;;;5091586;28;20464;-64
2023/04/24 10:39:21;;;;;;;4.10;3.70;;;;;;;;;;5092470;28;20095;-64
2023/04/24 10:58:52;;;;;;;3.78;3.28;;;;;;;;;;5309848;23;20063;-65
2023/04/24 11:01:34;;;;;;;4.38;3.25;;;;;;;;;;5052981;28;20166;-65
2023/04/24 11:04:04;;;;;;;3.97;3.58;;;;;;;;;;5068343;28;20040;-65
2023/04/24 11:06:37;;;;;;;3.67;3.37;;;;;;;;;;5070545;28;20036;-65
2023/04/24 11:09:06;;;;;;;3.95;3.58;;;;;;;;;;5074147;28;20261;-65
2023/04/24 11:11:36;;;;;;;3.25;3.05;;;;;;;;;;5072849;28;20376;-65
2023/04/24 11:14:04;;;;;;;4.05;3.65;;;;;;;;;;5053284;28;20546;-65
2023/04/24 11:16:38;;;;;;;4.40;3.90;;;;;;;;;;5073849;28;20379;-65
2023/04/24 11:19:19;;;;;;;4.35;3.67;;;;;;;;;;5049735;28;20148;-65
2023/04/24 11:22:01;;;;;;;4.65;3.95;;;;;;;;;;5073273;28;20077;-66
2023/04/24 11:24:30;;;;;;;3.85;3.55;;;;;;;;;;5054128;28;20086;-66
2023/04/24 11:27:01;;;;;;;4.72;3.33;;;;;;;;;;5068220;28;20033;-66
2023/04/24 11:29:44;;;;;;;3.70;3.25;;;;;;;;;;5074015;28;20025;-67
2023/04/24 11:32:19;;;;;;;6.22;3.50;;;;;;;;;;5073793;28;20039;-66
2023/04/24 11:34:50;;;;;;;3.20;2.90;;;;;;;;;;5072376;28;20032;-65
2023/04/24 11:37:16;;;;;;;8.25;3.47;;;;;;;;;;5073694;28;20094;-65
2023/04/24 11:39:42;;;;;;;3.47;3.10;;;;;;;;;;5073962;28;20032;-65
2023/04/24 11:42:08;;;;;;;3.88;3.22;;;;;;;;;;5073322;28;20036;-66
2023/04/24 11:44:37;;;;;;;4.72;3.83;;;;;;;;;;5073182;28;20278;-65
2023/04/24 11:47:05;;;;;;;3.78;3.47;;;;;;;;;;5071936;28;20082;-67
2023/04/24 11:49:36;;;;;;;4.50;3.63;;;;;;;;;;5055984;28;20414;-67
2023/04/24 11:52:02;;;;;;;6.55;3.50;;;;;;;;;;5073225;28;20132;-68
2023/04/24 11:54:28;;;;;;;4.00;3.60;;;;;;;;;;5073611;28;20028;-67
2023/04/24 11:56:53;;;;;;;3.78;3.42;;;;;;;;;;5073132;28;20035;-65
2023/04/24 11:59:19;;;;;;;3.83;3.35;;;;;;;;;;5072499;28;20051;-66
2023/04/24 12:01:45;;;;;;;5.85;3.38;;;;;;;;;;5071403;28;20028;-67
2023/04/24 12:04:11;;;;;;;7.57;3.80;;;;;;;;;;5072862;28;20403;-67
2023/04/24 12:06:37;;;;;;;6.72;3.50;;;;;;;;;;5073430;28;20032;-66
2023/04/24 12:09:06;;;;;;;4.57;3.53;;;;;;;;;;5065562;28;20058;-66
2023/04/24 12:11:32;;;;;;;7.45;3.78;;;;;;;;;;5071412;28;20436;-66
2023/04/24 12:14:10;;;;;;;6.93;3.35;;;;;;;;;;5073078;28;20114;-66
2023/04/24 12:16:35;;;;;;;7.53;3.70;;;;;;;;;;5072900;28;20078;-66
2023/04/24 12:19:02;;;;;;;7.70;3.60;;;;;;;;;;5072187;28;20104;-66
2023/04/24 12:21:30;;;;;;;6.22;3.58;;;;;;;;;;5071336;28;20053;-67
2023/04/24 12:23:56;;;;;;;4.38;3.40;;;;;;;;;;5066730;28;20037;-66
2023/04/24 12:26:22;;;;;;;6.95;3.75;;;;;;;;;;5072312;28;20021;-66
2023/04/24 12:28:51;;;;;;;6.15;3.45;;;;;;;;;;5072083;28;20029;-66
2023/04/24 12:31:17;;;;;;;8.60;3.95;;;;;;;;;;5054460;28;20028;-66
2023/04/24 12:33:43;;;;;;;8.25;3.80;;;;;;;;;;5071658;28;20391;-66
2023/04/24 12:36:12;;;;;;;10.30;3.63;;;;;;;;;;5071819;28;20024;-66
2023/04/24 12:38:44;;;;;;;6.00;3.63;;;;;;;;;;5072267;28;20066;-66
2023/04/24 12:41:12;;;;;;;8.95;4.13;;;;;;;;;;5071606;28;20036;-66
2023/04/24 12:43:37;;;;;;;4.35;3.35;;;;;;;;;;5072026;28;20070;-66
2023/04/24 12:46:03;;;;;;;7.03;4.07;;;;;;;;;;5072118;28;20063;-66
2023/04/24 12:48:30;;;;;;;6.28;3.92;;;;;;;;;;5072107;28;20028;-67
2023/04/24 12:51:00;;;;;;;4.82;2.95;;;;;;;;;;5072450;28;20070;-65
2023/04/24 12:53:26;;;;;;;5.28;3.30;;;;;;;;;;5072137;28;20020;-65
2023/04/24 12:55:52;;;;;;;3.00;2.63;;;;;;;;;;5071533;28;20032;-65
2023/04/24 12:58:22;;;;;;;4.22;2.70;;;;;;;;;;5070815;28;20084;-66
2023/04/24 13:00:48;;;;;;;11.60;3.67;;;;;;;;;;5036314;28;20112;-64
2023/04/24 13:03:14;;;;;;;6.68;3.30;;;;;;;;;;5068782;28;20198;-65
2023/04/24 13:05:40;;;;;;;5.93;3.25;;;;;;;;;;5071986;28;20040;-65
2023/04/24 13:08:06;;;;;;;8.52;3.10;;;;;;;;;;5071839;28;20042;-66
2023/04/24 13:10:31;;;;;;;6.95;2.75;;;;;;;;;;5072201;28;20024;-67
2023/04/24 13:12:57;;;;;;;2.58;2.38;;;;;;;;;;5068884;28;20082;-65
2023/04/24 13:15:23;;;;;;;3.05;2.42;;;;;;;;;;5063489;28;20506;-66
2023/04/24 13:17:50;;;;;;;6.32;2.60;;;;;;;;;;5059325;28;20547;-67
2023/04/24 13:20:16;;;;;;;7.22;2.70;;;;;;;;;;5051639;28;20020;-67
2023/04/24 13:22:41;;;;;;;4.03;2.35;;;;;;;;;;5051621;28;20500;-65
2023/04/24 13:25:07;;;;;;;3.25;2.40;;;;;;;;;;5051672;28;20451;-67
2023/04/24 13:27:33;;;;;;;2.22;2.03;;;;;;;;;;5065742;28;20415;-68
2023/04/24 13:29:58;;;;;;;7.40;3.03;;;;;;;;;;5070926;28;20028;-65
2023/04/24 13:32:25;;;;;;;4.35;2.50;;;;;;;;;;5071747;28;20491;-66
2023/04/24 13:34:50;;;;;;;3.03;2.20;;;;;;;;;;5071330;28;20020;-66
2023/04/24 13:37:16;;;;;;;2.83;2.33;;;;;;;;;;5071066;28;20031;-64
2023/04/24 13:39:41;;;;;;;3.25;2.20;;;;;;;;;;5071294;28;20064;-65
2023/04/24 13:42:07;;;;;;;2.13;1.92;;;;;;;;;;5071101;28;20021;-68
2023/04/24 13:44:32;;;;;;;2.35;1.95;;;;;;;;;;5071260;28;20024;-66
2023/04/24 13:46:59;;;;;;;2.25;2.05;;;;;;;;;;5071330;28;20099;-66
2023/04/24 13:49:25;;;;;;;8.43;2.15;;;;;;;;;;5033188;28;20025;-63
2023/04/24 13:51:51;;;;;;;3.90;2.13;;;;;;;;;;5056448;28;20040;-66
2023/04/24 13:54:17;;;;;;;4.05;2.17;;;;;;;;;;5054523;28;20536;-68
2023/04/24 13:56:42;;;;;;;7.55;2.33;;;;;;;;;;5051128;28;20044;-62
2023/04/24 13:59:08;;;;;;;4.00;2.65;;;;;;;;;;5050298;28;20153;-65
2023/04/24 14:01:34;;;;;;;2.60;2.40;;;;;;;;;;5050854;28;20036;-65
2023/04/24 14:03:59;;;;;;;6.15;2.78;;;;;;;;;;5050880;28;20031;-64
2023/04/24 14:06:25;;;;;;;3.55;2.40;;;;;;;;;;5050994;28;20028;-66
2023/04/24 14:08:51;;;;;;;3.38;2.50;;;;;;;;;;5050827;28;20028;-63
2023/04/24 14:11:18;;;;;;;3.20;2.80;;;;;;;;;;5050891;28;20037;-63
2023/04/24 14:13:44;;;;;;;5.95;3.50;;;;;;;;;;5049457;28;20039;-69
2023/04/24 14:16:10;;;;;;;6.47;3.20;;;;;;;;;;5066544;28;20059;-69
2023/04/24 14:18:36;;;;;;;3.80;2.85;;;;;;;;;;5070196;28;20540;-68
2023/04/24 14:21:05;;;;;;;4.05;2.60;;;;;;;;;;5051828;28;20074;-67
2023/04/24 14:23:31;;;;;;;3.40;2.30;;;;;;;;;;5070142;28;20551;-68
2023/04/24 14:25:59;;;;;;;10.55;2.80;;;;;;;;;;5070111;28;20116;-66
2023/04/24 14:28:26;;;;;;;2.92;2.60;;;;;;;;;;5070326;28;20523;-67
2023/04/24 14:30:52;;;;;;;5.80;2.97;;;;;;;;;;5070717;28;20059;-64
2023/04/24 14:33:18;;;;;;;3.13;2.85;;;;;;;;;;5070748;28;20059;-67
2023/04/24 14:35:43;;;;;;;5.32;2.65;;;;;;;;;;5070087;28;20020;-67
2023/04/24 14:38:09;;;;;;;4.50;2.30;;;;;;;;;;5070675;28;20037;-63
2023/04/24 14:40:35;;;;;;;2.83;2.58;;;;;;;;;;5070972;28;20029;-66
2023/04/24 14:43:01;;;;;;;3.63;2.35;;;;;;;;;;5074750;28;20035;-63
2023/04/24 14:45:26;;;;;;;4.03;2.50;;;;;;;;;;5075035;28;20024;-67
2023/04/24 14:47:53;;;;;;;4.25;2.60;;;;;;;;;;5074890;28;20048;-64
2023/04/24 14:50:19;;;;;;;6.07;2.30;;;;;;;;;;5074751;28;20020;-64
2023/04/24 14:52:44;;;;;;;4.20;2.47;;;;;;;;;;5056636;28;20052;-64
2023/04/24 14:55:10;;;;;;;3.13;2.25;;;;;;;;;;5074512;28;20052;-63
2023/04/24 14:57:36;;;;;;;3.58;2.40;;;;;;;;;;5074232;28;20076;-66